sensor_id;sensor_type;location;lat;lon;timestamp;P1;durP1;ratioP1;P2;durP2;ratioP2
14858;SDS011;7521;51.700;6.874;2023-02-15T00:02:09;36.03;;;19.83;;
14858;SDS011;7521;51.700;6.874;2023-02-15T00:05:14;31.98;;;18.95;;
14858;SDS011;7521;51.700;6.874;2023-02-15T00:08:19;32.97;;;19.30;;
14858;SDS011;7521;51.700;6.874;2023-02-15T00:11:24;33.50;;;19.38;;
14858;SDS011;7521;51.700;6.874;2023-02-15T00:14:44;32.30;;;19.97;;
14858;SDS011;7521;51.700;6.874;2023-02-15T00:17:50;32.38;;;18.75;;
14858;SDS011;7521;51.700;6.874;2023-02-15T00:20:55;34.95;;;19.15;;
14858;SDS011;7521;51.700;6.874;2023-02-15T00:24:01;28.37;;;18.00;;
14858;SDS011;7521;51.700;6.874;2023-02-15T00:27:06;30.13;;;18.53;;
14858;SDS011;7521;51.700;6.874;2023-02-15T00:30:11;32.30;;;18.60;;
14858;SDS011;7521;51.700;6.874;2023-02-15T00:33:17;30.20;;;18.43;;
14858;SDS011;7521;51.700;6.874;2023-02-15T00:36:22;31.08;;;18.15;;
14858;SDS011;7521;51.700;6.874;2023-02-15T00:39:27;32.50;;;18.45;;
14858;SDS011;7521;51.700;6.874;2023-02-15T00:42:33;31.17;;;19.17;;
14858;SDS011;7521;51.700;6.874;2023-02-15T00:45:38;37.25;;;19.58;;
14858;SDS011;7521;51.700;6.874;2023-02-15T00:48:44;30.57;;;18.70;;
14858;SDS011;7521;51.700;6.874;2023-02-15T00:51:49;30.20;;;18.40;;
14858;SDS011;7521;51.700;6.874;2023-02-15T00:54:54;30.80;;;18.60;;
14858;SDS011;7521;51.700;6.874;2023-02-15T00:57:59;28.92;;;18.48;;
14858;SDS011;7521;51.700;6.874;2023-02-15T01:01:06;27.70;;;17.70;;
14858;SDS011;7521;51.700;6.874;2023-02-15T01:04:11;33.57;;;19.30;;
14858;SDS011;7521;51.700;6.874;2023-02-15T01:07:16;34.47;;;18.43;;
14858;SDS011;7521;51.700;6.874;2023-02-15T01:10:22;30.52;;;18.05;;
14858;SDS011;7521;51.700;6.874;2023-02-15T01:13:27;30.67;;;18.50;;
14858;SDS011;7521;51.700;6.874;2023-02-15T01:16:32;33.27;;;18.77;;
14858;SDS011;7521;51.700;6.874;2023-02-15T01:19:38;32.55;;;18.48;;
14858;SDS011;7521;51.700;6.874;2023-02-15T01:22:43;35.63;;;19.65;;
14858;SDS011;7521;51.700;6.874;2023-02-15T01:25:48;32.93;;;18.07;;
14858;SDS011;7521;51.700;6.874;2023-02-15T01:28:53;30.83;;;17.83;;
14858;SDS011;7521;51.700;6.874;2023-02-15T01:31:58;31.92;;;18.75;;
14858;SDS011;7521;51.700;6.874;2023-02-15T01:35:03;32.63;;;18.33;;
14858;SDS011;7521;51.700;6.874;2023-02-15T01:38:09;33.67;;;19.70;;
14858;SDS011;7521;51.700;6.874;2023-02-15T01:41:14;31.15;;;17.95;;
14858;SDS011;7521;51.700;6.874;2023-02-15T01:50:56;28.90;;;18.10;;
14858;SDS011;7521;51.700;6.874;2023-02-15T01:54:03;33.57;;;19.40;;
14858;SDS011;7521;51.700;6.874;2023-02-15T01:57:19;37.77;;;21.53;;
14858;SDS011;7521;51.700;6.874;2023-02-15T02:00:26;43.47;;;23.77;;
14858;SDS011;7521;51.700;6.874;2023-02-15T02:06:57;43.57;;;23.70;;
14858;SDS011;7521;51.700;6.874;2023-02-15T02:10:03;46.23;;;26.63;;
14858;SDS011;7521;51.700;6.874;2023-02-15T02:13:08;42.90;;;25.77;;
14858;SDS011;7521;51.700;6.874;2023-02-15T02:19:54;36.20;;;20.57;;
14858;SDS011;7521;51.700;6.874;2023-02-15T02:23:11;37.43;;;20.33;;
14858;SDS011;7521;51.700;6.874;2023-02-15T02:26:44;36.07;;;20.97;;
14858;SDS011;7521;51.700;6.874;2023-02-15T02:33:17;32.57;;;18.67;;
14858;SDS011;7521;51.700;6.874;2023-02-15T02:36:29;32.43;;;19.20;;
14858;SDS011;7521;51.700;6.874;2023-02-15T02:39:37;33.80;;;19.23;;
14858;SDS011;7521;51.700;6.874;2023-02-15T02:42:59;34.27;;;19.13;;
14858;SDS011;7521;51.700;6.874;2023-02-15T02:46:28;30.97;;;18.07;;
14858;SDS011;7521;51.700;6.874;2023-02-15T02:49:32;32.90;;;18.80;;
14858;SDS011;7521;51.700;6.874;2023-02-15T02:55:46;28.53;;;17.37;;
14858;SDS011;7521;51.700;6.874;2023-02-15T02:58:57;32.77;;;17.03;;
14858;SDS011;7521;51.700;6.874;2023-02-15T03:02:05;33.97;;;18.07;;
14858;SDS011;7521;51.700;6.874;2023-02-15T03:05:14;28.63;;;16.90;;
14858;SDS011;7521;51.700;6.874;2023-02-15T03:08:20;29.53;;;18.27;;
14858;SDS011;7521;51.700;6.874;2023-02-15T03:11:28;29.10;;;17.07;;
14858;SDS011;7521;51.700;6.874;2023-02-15T03:14:34;30.20;;;18.60;;
14858;SDS011;7521;51.700;6.874;2023-02-15T03:17:45;34.83;;;18.43;;
14858;SDS011;7521;51.700;6.874;2023-02-15T03:20:51;32.57;;;17.87;;
14858;SDS011;7521;51.700;6.874;2023-02-15T03:23:59;32.67;;;18.23;;
14858;SDS011;7521;51.700;6.874;2023-02-15T03:27:06;29.67;;;17.50;;
14858;SDS011;7521;51.700;6.874;2023-02-15T03:30:12;28.63;;;17.83;;
14858;SDS011;7521;51.700;6.874;2023-02-15T03:33:18;30.77;;;17.63;;
14858;SDS011;7521;51.700;6.874;2023-02-15T03:36:27;31.33;;;18.07;;
14858;SDS011;7521;51.700;6.874;2023-02-15T03:42:39;34.00;;;18.65;;
14858;SDS011;7521;51.700;6.874;2023-02-15T03:45:45;32.83;;;19.30;;
14858;SDS011;7521;51.700;6.874;2023-02-15T03:49:09;31.50;;;18.50;;
14858;SDS011;7521;51.700;6.874;2023-02-15T03:52:16;33.37;;;18.83;;
14858;SDS011;7521;51.700;6.874;2023-02-15T03:55:22;30.90;;;17.80;;
14858;SDS011;7521;51.700;6.874;2023-02-15T03:58:28;35.57;;;18.40;;
14858;SDS011;7521;51.700;6.874;2023-02-15T04:05:03;32.13;;;17.97;;
14858;SDS011;7521;51.700;6.874;2023-02-15T04:08:08;31.27;;;19.77;;
14858;SDS011;7521;51.700;6.874;2023-02-15T04:11:13;34.33;;;19.13;;
14858;SDS011;7521;51.700;6.874;2023-02-15T04:14:18;31.42;;;18.30;;
14858;SDS011;7521;51.700;6.874;2023-02-15T04:17:42;30.90;;;18.37;;
14858;SDS011;7521;51.700;6.874;2023-02-15T04:20:47;35.55;;;18.58;;
14858;SDS011;7521;51.700;6.874;2023-02-15T04:24:11;30.90;;;17.83;;
14858;SDS011;7521;51.700;6.874;2023-02-15T04:27:36;30.70;;;18.70;;
14858;SDS011;7521;51.700;6.874;2023-02-15T04:30:41;31.83;;;18.20;;
14858;SDS011;7521;51.700;6.874;2023-02-15T04:33:46;30.40;;;18.73;;
14858;SDS011;7521;51.700;6.874;2023-02-15T04:36:52;32.70;;;18.97;;
14858;SDS011;7521;51.700;6.874;2023-02-15T04:39:57;30.70;;;18.77;;
14858;SDS011;7521;51.700;6.874;2023-02-15T04:43:05;33.47;;;18.67;;
14858;SDS011;7521;51.700;6.874;2023-02-15T04:46:10;30.42;;;17.45;;
14858;SDS011;7521;51.700;6.874;2023-02-15T04:49:16;32.92;;;18.70;;
14858;SDS011;7521;51.700;6.874;2023-02-15T04:52:21;33.45;;;18.63;;
14858;SDS011;7521;51.700;6.874;2023-02-15T04:55:26;30.87;;;18.00;;
14858;SDS011;7521;51.700;6.874;2023-02-15T04:58:31;39.70;;;20.57;;
14858;SDS011;7521;51.700;6.874;2023-02-15T05:01:37;46.90;;;22.73;;
14858;SDS011;7521;51.700;6.874;2023-02-15T05:04:42;43.80;;;22.98;;
14858;SDS011;7521;51.700;6.874;2023-02-15T05:07:47;43.70;;;22.77;;
14858;SDS011;7521;51.700;6.874;2023-02-15T05:10:52;42.53;;;21.63;;
14858;SDS011;7521;51.700;6.874;2023-02-15T05:13:57;39.53;;;20.73;;
14858;SDS011;7521;51.700;6.874;2023-02-15T05:17:02;37.83;;;21.53;;
14858;SDS011;7521;51.700;6.874;2023-02-15T05:20:10;36.53;;;20.63;;
14858;SDS011;7521;51.700;6.874;2023-02-15T05:23:15;36.57;;;20.03;;
14858;SDS011;7521;51.700;6.874;2023-02-15T05:26:22;38.90;;;19.83;;
14858;SDS011;7521;51.700;6.874;2023-02-15T05:29:46;33.03;;;19.17;;
14858;SDS011;7521;51.700;6.874;2023-02-15T05:32:51;34.72;;;19.30;;
14858;SDS011;7521;51.700;6.874;2023-02-15T05:35:56;37.17;;;19.20;;
14858;SDS011;7521;51.700;6.874;2023-02-15T05:39:01;33.20;;;19.10;;
14858;SDS011;7521;51.700;6.874;2023-02-15T05:42:08;38.80;;;20.20;;
14858;SDS011;7521;51.700;6.874;2023-02-15T05:45:14;32.70;;;18.02;;
14858;SDS011;7521;51.700;6.874;2023-02-15T05:48:20;33.23;;;18.70;;
14858;SDS011;7521;51.700;6.874;2023-02-15T05:51:26;37.13;;;19.70;;
14858;SDS011;7521;51.700;6.874;2023-02-15T05:54:31;35.47;;;19.75;;
14858;SDS011;7521;51.700;6.874;2023-02-15T05:57:36;28.23;;;17.50;;
14858;SDS011;7521;51.700;6.874;2023-02-15T06:00:41;34.85;;;17.92;;
14858;SDS011;7521;51.700;6.874;2023-02-15T06:03:46;33.95;;;19.30;;
14858;SDS011;7521;51.700;6.874;2023-02-15T06:06:51;32.38;;;17.67;;
14858;SDS011;7521;51.700;6.874;2023-02-15T06:09:57;30.67;;;17.45;;
14858;SDS011;7521;51.700;6.874;2023-02-15T06:13:02;30.13;;;17.37;;
14858;SDS011;7521;51.700;6.874;2023-02-15T06:16:07;31.48;;;17.75;;
14858;SDS011;7521;51.700;6.874;2023-02-15T06:19:12;30.35;;;16.90;;
14858;SDS011;7521;51.700;6.874;2023-02-15T06:22:17;30.58;;;17.30;;
14858;SDS011;7521;51.700;6.874;2023-02-15T06:25:23;30.57;;;16.33;;
14858;SDS011;7521;51.700;6.874;2023-02-15T06:28:29;31.53;;;16.53;;
14858;SDS011;7521;51.700;6.874;2023-02-15T06:31:34;34.23;;;17.60;;
14858;SDS011;7521;51.700;6.874;2023-02-15T06:34:39;29.13;;;17.50;;
14858;SDS011;7521;51.700;6.874;2023-02-15T06:37:45;28.25;;;17.35;;
14858;SDS011;7521;51.700;6.874;2023-02-15T06:40:50;32.00;;;18.87;;
14858;SDS011;7521;51.700;6.874;2023-02-15T06:43:55;34.87;;;19.43;;
14858;SDS011;7521;51.700;6.874;2023-02-15T06:47:01;32.13;;;18.67;;
14858;SDS011;7521;51.700;6.874;2023-02-15T06:50:06;32.85;;;18.40;;
14858;SDS011;7521;51.700;6.874;2023-02-15T06:53:12;36.00;;;19.07;;
14858;SDS011;7521;51.700;6.874;2023-02-15T06:56:17;32.63;;;17.90;;
14858;SDS011;7521;51.700;6.874;2023-02-15T06:59:22;32.00;;;18.47;;
14858;SDS011;7521;51.700;6.874;2023-02-15T07:02:27;37.47;;;18.38;;
14858;SDS011;7521;51.700;6.874;2023-02-15T07:05:33;29.73;;;17.70;;
14858;SDS011;7521;51.700;6.874;2023-02-15T07:08:39;33.90;;;19.53;;
14858;SDS011;7521;51.700;6.874;2023-02-15T07:11:46;33.17;;;19.30;;
14858;SDS011;7521;51.700;6.874;2023-02-15T07:15:14;38.40;;;19.97;;
14858;SDS011;7521;51.700;6.874;2023-02-15T07:18:20;34.23;;;20.83;;
14858;SDS011;7521;51.700;6.874;2023-02-15T07:21:31;39.25;;;21.73;;
14858;SDS011;7521;51.700;6.874;2023-02-15T07:24:39;43.63;;;22.07;;
14858;SDS011;7521;51.700;6.874;2023-02-15T07:27:44;42.47;;;22.27;;
14858;SDS011;7521;51.700;6.874;2023-02-15T07:30:49;44.33;;;22.03;;
14858;SDS011;7521;51.700;6.874;2023-02-15T07:33:55;39.65;;;22.33;;
14858;SDS011;7521;51.700;6.874;2023-02-15T07:37:00;39.22;;;21.33;;
14858;SDS011;7521;51.700;6.874;2023-02-15T07:40:05;44.87;;;23.33;;
14858;SDS011;7521;51.700;6.874;2023-02-15T07:43:11;44.77;;;25.20;;
14858;SDS011;7521;51.700;6.874;2023-02-15T07:46:17;44.57;;;25.83;;
14858;SDS011;7521;51.700;6.874;2023-02-15T07:49:22;42.63;;;23.77;;
14858;SDS011;7521;51.700;6.874;2023-02-15T07:52:28;39.20;;;23.67;;
14858;SDS011;7521;51.700;6.874;2023-02-15T07:55:36;42.45;;;23.95;;
14858;SDS011;7521;51.700;6.874;2023-02-15T07:58:41;38.70;;;23.83;;
14858;SDS011;7521;51.700;6.874;2023-02-15T08:02:03;39.80;;;23.00;;
14858;SDS011;7521;51.700;6.874;2023-02-15T08:05:10;36.53;;;22.90;;
14858;SDS011;7521;51.700;6.874;2023-02-15T08:08:15;42.63;;;23.92;;
14858;SDS011;7521;51.700;6.874;2023-02-15T08:11:36;38.77;;;22.97;;
14858;SDS011;7521;51.700;6.874;2023-02-15T08:14:41;38.67;;;24.13;;
14858;SDS011;7521;51.700;6.874;2023-02-15T08:17:46;38.90;;;22.20;;
14858;SDS011;7521;51.700;6.874;2023-02-15T08:20:52;39.30;;;22.83;;
14858;SDS011;7521;51.700;6.874;2023-02-15T08:23:57;41.63;;;24.93;;
14858;SDS011;7521;51.700;6.874;2023-02-15T08:27:03;35.83;;;22.17;;
14858;SDS011;7521;51.700;6.874;2023-02-15T08:30:09;42.87;;;24.33;;
14858;SDS011;7521;51.700;6.874;2023-02-15T08:33:19;38.97;;;22.60;;
14858;SDS011;7521;51.700;6.874;2023-02-15T08:36:25;38.20;;;21.70;;
14858;SDS011;7521;51.700;6.874;2023-02-15T08:39:31;40.77;;;22.47;;
14858;SDS011;7521;51.700;6.874;2023-02-15T08:42:36;54.40;;;34.33;;
14858;SDS011;7521;51.700;6.874;2023-02-15T08:45:41;46.38;;;27.95;;
14858;SDS011;7521;51.700;6.874;2023-02-15T08:48:47;48.17;;;28.45;;
14858;SDS011;7521;51.700;6.874;2023-02-15T08:51:52;44.77;;;27.53;;
14858;SDS011;7521;51.700;6.874;2023-02-15T08:54:57;47.13;;;29.52;;
14858;SDS011;7521;51.700;6.874;2023-02-15T08:58:02;48.90;;;28.20;;
14858;SDS011;7521;51.700;6.874;2023-02-15T09:01:08;46.45;;;28.92;;
14858;SDS011;7521;51.700;6.874;2023-02-15T09:04:17;50.27;;;29.70;;
14858;SDS011;7521;51.700;6.874;2023-02-15T09:07:22;51.00;;;30.27;;
14858;SDS011;7521;51.700;6.874;2023-02-15T09:10:28;43.07;;;26.90;;
14858;SDS011;7521;51.700;6.874;2023-02-15T09:13:33;43.73;;;27.33;;
14858;SDS011;7521;51.700;6.874;2023-02-15T09:16:39;43.83;;;26.97;;
14858;SDS011;7521;51.700;6.874;2023-02-15T09:19:44;43.40;;;27.03;;
14858;SDS011;7521;51.700;6.874;2023-02-15T09:22:51;44.80;;;27.48;;
14858;SDS011;7521;51.700;6.874;2023-02-15T09:25:56;45.57;;;26.43;;
14858;SDS011;7521;51.700;6.874;2023-02-15T09:29:02;44.38;;;26.45;;
14858;SDS011;7521;51.700;6.874;2023-02-15T09:32:08;39.70;;;26.03;;
14858;SDS011;7521;51.700;6.874;2023-02-15T09:35:13;40.72;;;25.90;;
14858;SDS011;7521;51.700;6.874;2023-02-15T09:38:18;41.40;;;25.23;;
14858;SDS011;7521;51.700;6.874;2023-02-15T09:54:46;38.60;;;24.43;;
14858;SDS011;7521;51.700;6.874;2023-02-15T10:08:04;34.47;;;23.20;;
14858;SDS011;7521;51.700;6.874;2023-02-15T10:11:15;33.87;;;22.73;;
14858;SDS011;7521;51.700;6.874;2023-02-15T10:27:54;34.80;;;22.03;;
14858;SDS011;7521;51.700;6.874;2023-02-15T10:31:02;34.67;;;22.50;;
14858;SDS011;7521;51.700;6.874;2023-02-15T10:34:14;32.77;;;21.27;;
14858;SDS011;7521;51.700;6.874;2023-02-15T10:40:40;29.37;;;20.73;;
14858;SDS011;7521;51.700;6.874;2023-02-15T10:47:03;28.93;;;20.77;;
14858;SDS011;7521;51.700;6.874;2023-02-15T10:50:24;36.10;;;22.20;;
14858;SDS011;7521;51.700;6.874;2023-02-15T10:53:38;33.53;;;20.37;;
14858;SDS011;7521;51.700;6.874;2023-02-15T11:03:25;28.57;;;18.63;;
14858;SDS011;7521;51.700;6.874;2023-02-15T11:06:37;28.20;;;18.13;;
14858;SDS011;7521;51.700;6.874;2023-02-15T11:09:46;26.20;;;17.50;;
14858;SDS011;7521;51.700;6.874;2023-02-15T11:12:53;28.30;;;17.20;;
14858;SDS011;7521;51.700;6.874;2023-02-15T11:16:17;27.20;;;17.30;;
14858;SDS011;7521;51.700;6.874;2023-02-15T11:19:30;27.13;;;16.53;;
14858;SDS011;7521;51.700;6.874;2023-02-15T11:22:36;26.03;;;17.10;;
14858;SDS011;7521;51.700;6.874;2023-02-15T11:25:42;27.60;;;17.23;;
14858;SDS011;7521;51.700;6.874;2023-02-15T11:28:50;25.17;;;15.97;;
14858;SDS011;7521;51.700;6.874;2023-02-15T11:31:57;24.43;;;15.27;;
14858;SDS011;7521;51.700;6.874;2023-02-15T11:38:16;25.10;;;15.73;;
14858;SDS011;7521;51.700;6.874;2023-02-15T11:41:23;21.50;;;14.70;;
14858;SDS011;7521;51.700;6.874;2023-02-15T11:44:32;24.20;;;14.77;;
14858;SDS011;7521;51.700;6.874;2023-02-15T11:47:39;20.37;;;14.13;;
14858;SDS011;7521;51.700;6.874;2023-02-15T11:50:45;22.40;;;13.82;;
14858;SDS011;7521;51.700;6.874;2023-02-15T11:53:50;25.30;;;14.07;;
14858;SDS011;7521;51.700;6.874;2023-02-15T11:57:39;24.00;;;14.07;;
14858;SDS011;7521;51.700;6.874;2023-02-15T12:00:30;25.67;;;14.53;;
14858;SDS011;7521;51.700;6.874;2023-02-15T12:03:43;24.40;;;13.73;;
14858;SDS011;7521;51.700;6.874;2023-02-15T12:06:52;24.27;;;14.70;;
14858;SDS011;7521;51.700;6.874;2023-02-15T12:10:05;25.57;;;14.30;;
14858;SDS011;7521;51.700;6.874;2023-02-15T12:13:19;23.77;;;14.87;;
14858;SDS011;7521;51.700;6.874;2023-02-15T12:16:25;28.67;;;15.70;;
14858;SDS011;7521;51.700;6.874;2023-02-15T12:19:32;28.87;;;14.50;;
14858;SDS011;7521;51.700;6.874;2023-02-15T12:22:54;22.97;;;13.77;;
14858;SDS011;7521;51.700;6.874;2023-02-15T12:26:03;25.40;;;13.97;;
14858;SDS011;7521;51.700;6.874;2023-02-15T12:29:12;25.57;;;13.20;;
14858;SDS011;7521;51.700;6.874;2023-02-15T12:32:36;22.37;;;13.53;;
14858;SDS011;7521;51.700;6.874;2023-02-15T12:35:55;25.50;;;14.47;;
14858;SDS011;7521;51.700;6.874;2023-02-15T12:39:21;26.37;;;14.53;;
14858;SDS011;7521;51.700;6.874;2023-02-15T12:42:28;25.83;;;14.53;;
14858;SDS011;7521;51.700;6.874;2023-02-15T12:45:45;30.70;;;14.03;;
14858;SDS011;7521;51.700;6.874;2023-02-15T12:49:04;43.70;;;15.85;;
14858;SDS011;7521;51.700;6.874;2023-02-15T12:55:23;32.30;;;14.37;;
14858;SDS011;7521;51.700;6.874;2023-02-15T12:58:29;28.77;;;15.37;;
14858;SDS011;7521;51.700;6.874;2023-02-15T13:01:35;25.10;;;14.17;;
14858;SDS011;7521;51.700;6.874;2023-02-15T13:04:46;27.90;;;15.77;;
14858;SDS011;7521;51.700;6.874;2023-02-15T13:07:56;24.23;;;14.43;;
14858;SDS011;7521;51.700;6.874;2023-02-15T13:11:11;26.67;;;15.30;;
14858;SDS011;7521;51.700;6.874;2023-02-15T13:14:18;32.37;;;15.70;;
14858;SDS011;7521;51.700;6.874;2023-02-15T13:17:25;29.87;;;16.30;;
14858;SDS011;7521;51.700;6.874;2023-02-15T13:20:34;30.17;;;16.47;;
14858;SDS011;7521;51.700;6.874;2023-02-15T13:23:42;23.03;;;13.80;;
14858;SDS011;7521;51.700;6.874;2023-02-15T13:26:48;24.03;;;14.77;;
14858;SDS011;7521;51.700;6.874;2023-02-15T13:29:54;24.77;;;14.37;;
14858;SDS011;7521;51.700;6.874;2023-02-15T13:36:30;26.53;;;14.93;;
14858;SDS011;7521;51.700;6.874;2023-02-15T13:43:05;31.77;;;15.03;;
14858;SDS011;7521;51.700;6.874;2023-02-15T13:52:46;26.57;;;14.07;;
14858;SDS011;7521;51.700;6.874;2023-02-15T13:55:54;24.27;;;14.40;;
14858;SDS011;7521;51.700;6.874;2023-02-15T13:59:15;27.20;;;15.13;;
14858;SDS011;7521;51.700;6.874;2023-02-15T14:05:45;24.00;;;14.45;;
14858;SDS011;7521;51.700;6.874;2023-02-15T14:15:33;30.13;;;15.13;;
14858;SDS011;7521;51.700;6.874;2023-02-15T14:18:51;26.67;;;14.47;;
14858;SDS011;7521;51.700;6.874;2023-02-15T14:22:00;27.67;;;14.37;;
14858;SDS011;7521;51.700;6.874;2023-02-15T14:25:27;27.87;;;13.80;;
14858;SDS011;7521;51.700;6.874;2023-02-15T14:31:43;25.63;;;14.27;;
14858;SDS011;7521;51.700;6.874;2023-02-15T14:34:49;27.27;;;15.33;;
14858;SDS011;7521;51.700;6.874;2023-02-15T14:37:58;24.77;;;14.33;;
14858;SDS011;7521;51.700;6.874;2023-02-15T14:41:12;24.93;;;13.43;;
14858;SDS011;7521;51.700;6.874;2023-02-15T14:44:24;29.30;;;14.87;;
14858;SDS011;7521;51.700;6.874;2023-02-15T14:47:34;23.57;;;14.23;;
14858;SDS011;7521;51.700;6.874;2023-02-15T14:50:43;26.87;;;14.20;;
14858;SDS011;7521;51.700;6.874;2023-02-15T14:53:48;22.93;;;13.60;;
14858;SDS011;7521;51.700;6.874;2023-02-15T15:00:36;28.47;;;14.07;;
14858;SDS011;7521;51.700;6.874;2023-02-15T15:03:30;27.60;;;14.83;;
14858;SDS011;7521;51.700;6.874;2023-02-15T15:06:36;28.90;;;14.40;;
14858;SDS011;7521;51.700;6.874;2023-02-15T15:09:42;31.10;;;13.87;;
14858;SDS011;7521;51.700;6.874;2023-02-15T15:12:49;28.73;;;14.57;;
14858;SDS011;7521;51.700;6.874;2023-02-15T15:15:54;26.93;;;15.20;;
14858;SDS011;7521;51.700;6.874;2023-02-15T15:18:59;28.10;;;14.68;;
14858;SDS011;7521;51.700;6.874;2023-02-15T15:22:04;26.87;;;15.27;;
14858;SDS011;7521;51.700;6.874;2023-02-15T15:31:43;30.73;;;15.43;;
14858;SDS011;7521;51.700;6.874;2023-02-15T15:35:35;30.90;;;14.03;;
14858;SDS011;7521;51.700;6.874;2023-02-15T15:48:44;30.60;;;15.60;;
14858;SDS011;7521;51.700;6.874;2023-02-15T15:51:49;28.55;;;14.82;;
14858;SDS011;7521;51.700;6.874;2023-02-15T15:54:57;30.77;;;14.77;;
14858;SDS011;7521;51.700;6.874;2023-02-15T15:58:09;29.17;;;16.47;;
14858;SDS011;7521;51.700;6.874;2023-02-15T16:01:27;26.23;;;15.87;;
14858;SDS011;7521;51.700;6.874;2023-02-15T16:04:33;30.27;;;15.73;;
14858;SDS011;7521;51.700;6.874;2023-02-15T16:07:40;26.23;;;14.57;;
14858;SDS011;7521;51.700;6.874;2023-02-15T16:10:45;26.13;;;15.03;;
14858;SDS011;7521;51.700;6.874;2023-02-15T16:13:51;26.27;;;14.35;;
14858;SDS011;7521;51.700;6.874;2023-02-15T16:16:57;27.03;;;15.17;;
14858;SDS011;7521;51.700;6.874;2023-02-15T16:20:11;27.27;;;15.20;;
14858;SDS011;7521;51.700;6.874;2023-02-15T16:23:26;27.77;;;16.00;;
14858;SDS011;7521;51.700;6.874;2023-02-15T16:26:40;28.80;;;16.23;;
14858;SDS011;7521;51.700;6.874;2023-02-15T16:29:49;27.17;;;15.57;;
14858;SDS011;7521;51.700;6.874;2023-02-15T16:36:28;44.43;;;26.27;;
14858;SDS011;7521;51.700;6.874;2023-02-15T16:39:33;38.77;;;24.03;;
14858;SDS011;7521;51.700;6.874;2023-02-15T16:42:45;32.57;;;19.47;;
14858;SDS011;7521;51.700;6.874;2023-02-15T16:45:50;27.17;;;16.65;;
14858;SDS011;7521;51.700;6.874;2023-02-15T16:48:57;28.07;;;16.33;;
14858;SDS011;7521;51.700;6.874;2023-02-15T16:52:04;30.40;;;16.30;;
14858;SDS011;7521;51.700;6.874;2023-02-15T16:55:19;50.90;;;28.27;;
14858;SDS011;7521;51.700;6.874;2023-02-15T16:58:46;40.70;;;23.47;;
14858;SDS011;7521;51.700;6.874;2023-02-15T17:01:50;38.83;;;21.13;;
14858;SDS011;7521;51.700;6.874;2023-02-15T17:05:07;34.57;;;19.57;;
14858;SDS011;7521;51.700;6.874;2023-02-15T17:08:23;29.73;;;17.20;;
14858;SDS011;7521;51.700;6.874;2023-02-15T17:11:34;34.60;;;19.57;;
14858;SDS011;7521;51.700;6.874;2023-02-15T17:14:39;28.90;;;17.73;;
14858;SDS011;7521;51.700;6.874;2023-02-15T17:17:45;32.70;;;18.37;;
14858;SDS011;7521;51.700;6.874;2023-02-15T17:20:52;28.17;;;16.93;;
14858;SDS011;7521;51.700;6.874;2023-02-15T17:24:01;32.63;;;18.63;;
14858;SDS011;7521;51.700;6.874;2023-02-15T17:27:12;30.57;;;17.37;;
14858;SDS011;7521;51.700;6.874;2023-02-15T17:30:33;28.10;;;17.33;;
14858;SDS011;7521;51.700;6.874;2023-02-15T17:33:38;31.00;;;18.13;;
14858;SDS011;7521;51.700;6.874;2023-02-15T17:37:22;31.43;;;17.87;;
14858;SDS011;7521;51.700;6.874;2023-02-15T17:40:22;28.77;;;16.40;;
14858;SDS011;7521;51.700;6.874;2023-02-15T17:43:28;28.97;;;16.93;;
14858;SDS011;7521;51.700;6.874;2023-02-15T17:46:34;37.78;;;20.95;;
14858;SDS011;7521;51.700;6.874;2023-02-15T17:49:39;37.73;;;20.10;;
14858;SDS011;7521;51.700;6.874;2023-02-15T17:52:45;33.40;;;17.90;;
14858;SDS011;7521;51.700;6.874;2023-02-15T17:55:50;29.05;;;17.38;;
14858;SDS011;7521;51.700;6.874;2023-02-15T17:58:55;32.53;;;19.40;;
14858;SDS011;7521;51.700;6.874;2023-02-15T18:02:01;30.17;;;18.60;;
14858;SDS011;7521;51.700;6.874;2023-02-15T18:05:24;30.60;;;18.00;;
14858;SDS011;7521;51.700;6.874;2023-02-15T18:08:48;30.13;;;17.80;;
14858;SDS011;7521;51.700;6.874;2023-02-15T18:12:25;42.97;;;27.50;;
14858;SDS011;7521;51.700;6.874;2023-02-15T18:15:33;34.00;;;21.13;;
14858;SDS011;7521;51.700;6.874;2023-02-15T18:18:39;41.67;;;24.40;;
14858;SDS011;7521;51.700;6.874;2023-02-15T18:21:44;38.90;;;22.43;;
14858;SDS011;7521;51.700;6.874;2023-02-15T18:24:50;35.70;;;21.27;;
14858;SDS011;7521;51.700;6.874;2023-02-15T18:27:55;32.10;;;20.03;;
14858;SDS011;7521;51.700;6.874;2023-02-15T18:31:00;39.13;;;20.93;;
14858;SDS011;7521;51.700;6.874;2023-02-15T18:34:06;34.47;;;18.57;;
14858;SDS011;7521;51.700;6.874;2023-02-15T18:37:18;28.13;;;17.27;;
14858;SDS011;7521;51.700;6.874;2023-02-15T18:40:26;28.40;;;18.33;;
14858;SDS011;7521;51.700;6.874;2023-02-15T18:43:31;27.93;;;18.17;;
14858;SDS011;7521;51.700;6.874;2023-02-15T18:46:36;27.08;;;17.13;;
14858;SDS011;7521;51.700;6.874;2023-02-15T18:49:41;30.73;;;17.70;;
14858;SDS011;7521;51.700;6.874;2023-02-15T18:52:47;33.63;;;20.83;;
14858;SDS011;7521;51.700;6.874;2023-02-15T18:55:54;32.33;;;19.57;;
14858;SDS011;7521;51.700;6.874;2023-02-15T18:58:59;28.33;;;18.98;;
14858;SDS011;7521;51.700;6.874;2023-02-15T19:02:11;34.42;;;19.88;;
14858;SDS011;7521;51.700;6.874;2023-02-15T19:05:16;34.50;;;20.77;;
14858;SDS011;7521;51.700;6.874;2023-02-15T19:08:22;31.93;;;20.53;;
14858;SDS011;7521;51.700;6.874;2023-02-15T19:11:28;29.77;;;20.47;;
14858;SDS011;7521;51.700;6.874;2023-02-15T19:14:33;28.93;;;18.93;;
14858;SDS011;7521;51.700;6.874;2023-02-15T19:17:38;28.17;;;18.52;;
14858;SDS011;7521;51.700;6.874;2023-02-15T19:20:44;27.45;;;18.58;;
14858;SDS011;7521;51.700;6.874;2023-02-15T19:23:52;26.17;;;18.17;;
14858;SDS011;7521;51.700;6.874;2023-02-15T19:26:58;27.83;;;17.77;;
14858;SDS011;7521;51.700;6.874;2023-02-15T19:30:04;29.50;;;18.17;;
14858;SDS011;7521;51.700;6.874;2023-02-15T19:33:15;28.60;;;18.37;;
14858;SDS011;7521;51.700;6.874;2023-02-15T19:36:20;29.10;;;18.03;;
14858;SDS011;7521;51.700;6.874;2023-02-15T19:39:27;27.27;;;17.40;;
14858;SDS011;7521;51.700;6.874;2023-02-15T19:42:33;25.50;;;17.30;;
14858;SDS011;7521;51.700;6.874;2023-02-15T19:45:38;27.25;;;18.80;;
14858;SDS011;7521;51.700;6.874;2023-02-15T19:48:44;25.05;;;17.40;;
14858;SDS011;7521;51.700;6.874;2023-02-15T19:51:49;30.43;;;18.30;;
14858;SDS011;7521;51.700;6.874;2023-02-15T19:54:54;30.03;;;17.70;;
14858;SDS011;7521;51.700;6.874;2023-02-15T19:58:00;27.20;;;17.85;;
14858;SDS011;7521;51.700;6.874;2023-02-15T20:01:05;22.50;;;16.73;;
14858;SDS011;7521;51.700;6.874;2023-02-15T20:04:10;25.63;;;17.47;;
14858;SDS011;7521;51.700;6.874;2023-02-15T20:07:23;28.20;;;16.85;;
14858;SDS011;7521;51.700;6.874;2023-02-15T20:10:30;25.57;;;15.90;;
14858;SDS011;7521;51.700;6.874;2023-02-15T20:13:35;28.30;;;18.23;;
14858;SDS011;7521;51.700;6.874;2023-02-15T20:16:40;28.57;;;17.33;;
14858;SDS011;7521;51.700;6.874;2023-02-15T20:19:45;24.13;;;15.80;;
14858;SDS011;7521;51.700;6.874;2023-02-15T20:22:51;22.00;;;14.70;;
14858;SDS011;7521;51.700;6.874;2023-02-15T20:25:57;25.60;;;15.93;;
14858;SDS011;7521;51.700;6.874;2023-02-15T20:29:02;23.80;;;15.20;;
14858;SDS011;7521;51.700;6.874;2023-02-15T20:32:10;25.92;;;14.88;;
14858;SDS011;7521;51.700;6.874;2023-02-15T20:35:16;22.00;;;14.43;;
14858;SDS011;7521;51.700;6.874;2023-02-15T20:38:23;23.27;;;14.07;;
14858;SDS011;7521;51.700;6.874;2023-02-15T20:41:30;29.23;;;15.87;;
14858;SDS011;7521;51.700;6.874;2023-02-15T20:44:42;32.30;;;16.80;;
14858;SDS011;7521;51.700;6.874;2023-02-15T20:47:48;30.08;;;16.55;;
14858;SDS011;7521;51.700;6.874;2023-02-15T20:50:54;28.03;;;16.23;;